Time;durP1;ratioP1;P1;durP2;ratioP2;P2;SDS_P1;SDS_P2;PMS_P1;PMS_P2;Temp;Humidity;BMP_temperature;BMP_pressure;BME280_temperature;BME280_humidity;BME280_pressure;Samples;Min_cycle;Max_cycle;Signal;HPM_P1;HPM_P2
2023/04/29 00:00:09;;;;;;;66.95;45.65;;;;;;;;;;5069076;28;20129;-82
2023/04/29 00:02:35;;;;;;;61.33;44.63;;;;;;;;;;5068683;28;20055;-81
2023/04/29 00:05:03;;;;;;;67.53;44.75;;;;;;;;;;5067360;28;20045;-81
2023/04/29 00:07:31;;;;;;;66.95;45.15;;;;;;;;;;5068157;28;20453;-81
2023/04/29 00:09:57;;;;;;;57.50;42.40;;;;;;;;;;5049296;28;20041;-81
2023/04/29 00:12:23;;;;;;;58.13;42.65;;;;;;;;;;5066000;28;20124;-81
2023/04/29 00:14:49;;;;;;;69.63;44.65;;;;;;;;;;5066533;28;20101;-82
2023/04/29 00:17:16;;;;;;;65.53;44.97;;;;;;;;;;5067059;28;20127;-81
2023/04/29 00:19:43;;;;;;;57.08;42.55;;;;;;;;;;5066228;28;20095;-82
2023/04/29 00:22:09;;;;;;;63.88;43.58;;;;;;;;;;5066269;28;20087;-82
2023/04/29 00:24:35;;;;;;;56.88;42.13;;;;;;;;;;5066692;28;20052;-82
2023/04/29 00:27:01;;;;;;;63.15;42.72;;;;;;;;;;5066406;28;20074;-81
2023/04/29 00:29:27;;;;;;;63.55;43.50;;;;;;;;;;5067059;28;20482;-82
2023/04/29 00:31:53;;;;;;;70.15;46.35;;;;;;;;;;5065868;28;20041;-82
2023/04/29 00:34:20;;;;;;;67.28;44.75;;;;;;;;;;5048617;28;20495;-83
2023/04/29 00:36:46;;;;;;;64.18;43.95;;;;;;;;;;5064627;28;20479;-82
2023/04/29 00:39:12;;;;;;;55.75;41.65;;;;;;;;;;5066552;28;20477;-81
2023/04/29 00:41:38;;;;;;;57.53;40.17;;;;;;;;;;5065675;28;20069;-83
2023/04/29 00:44:04;;;;;;;62.17;42.30;;;;;;;;;;5066990;28;20045;-84
2023/04/29 00:46:31;;;;;;;61.88;41.53;;;;;;;;;;5049576;28;20049;-81
2023/04/29 00:48:57;;;;;;;61.28;41.22;;;;;;;;;;5065952;28;20482;-82
2023/04/29 00:51:23;;;;;;;67.03;40.50;;;;;;;;;;5064261;28;20101;-82
2023/04/29 00:53:50;;;;;;;59.22;40.30;;;;;;;;;;5065293;28;20054;-82
2023/04/29 00:56:16;;;;;;;55.25;40.10;;;;;;;;;;5065213;28;20091;-82
2023/04/29 00:58:48;;;;;;;54.47;40.45;;;;;;;;;;5066821;28;20093;-82
2023/04/29 01:01:15;;;;;;;50.85;37.40;;;;;;;;;;5050840;28;20045;-82
2023/04/29 01:03:42;;;;;;;52.13;37.80;;;;;;;;;;5067639;28;20045;-82
2023/04/29 01:06:11;;;;;;;52.95;37.75;;;;;;;;;;5061477;28;20041;-82
2023/04/29 01:08:43;;;;;;;51.22;37.83;;;;;;;;;;5046224;28;20046;-82
2023/04/29 01:11:10;;;;;;;49.20;36.20;;;;;;;;;;5045763;28;20057;-82
2023/04/29 01:13:45;;;;;;;47.33;34.67;;;;;;;;;;5045680;28;20053;-82
2023/04/29 01:16:18;;;;;;;47.17;37.13;;;;;;;;;;5045397;28;20045;-82
2023/04/29 01:18:55;;;;;;;47.75;36.42;;;;;;;;;;5057452;28;20048;-81
2023/04/29 01:21:21;;;;;;;50.28;36.20;;;;;;;;;;5065542;28;20041;-82
2023/04/29 01:23:54;;;;;;;52.28;36.72;;;;;;;;;;5066337;28;20057;-82
2023/04/29 01:26:21;;;;;;;53.58;37.20;;;;;;;;;;5065800;28;20048;-81
2023/04/29 01:28:51;;;;;;;49.25;35.70;;;;;;;;;;5066242;28;20045;-82
2023/04/29 01:31:37;;;;;;;50.35;37.33;;;;;;;;;;5065445;28;20040;-82
2023/04/29 01:34:22;;;;;;;48.28;36.63;;;;;;;;;;5065185;28;20053;-82
2023/04/29 01:37:07;;;;;;;51.97;37.30;;;;;;;;;;5063896;28;20037;-82
2023/04/29 01:39:52;;;;;;;54.97;37.67;;;;;;;;;;5064996;28;20068;-81
2023/04/29 01:42:30;;;;;;;53.08;36.88;;;;;;;;;;5063947;28;20045;-82
2023/04/29 01:44:57;;;;;;;48.60;37.30;;;;;;;;;;5044991;28;20048;-83
2023/04/29 01:47:23;;;;;;;52.38;36.65;;;;;;;;;;5063756;28;20052;-82
2023/04/29 01:49:49;;;;;;;52.05;36.60;;;;;;;;;;5062615;28;20061;-82
2023/04/29 01:52:15;;;;;;;49.65;35.15;;;;;;;;;;5043722;28;20053;-82
2023/04/29 01:54:42;;;;;;;49.47;36.60;;;;;;;;;;5059908;28;20098;-82
2023/04/29 01:57:08;;;;;;;47.55;35.50;;;;;;;;;;5060168;28;20045;-82
2023/04/29 01:59:35;;;;;;;48.90;35.90;;;;;;;;;;5060695;28;20045;-82
2023/04/29 02:02:01;;;;;;;51.40;34.65;;;;;;;;;;5061023;28;20047;-82
2023/04/29 02:04:27;;;;;;;46.00;33.70;;;;;;;;;;5060993;28;20072;-82
2023/04/29 02:06:53;;;;;;;50.92;34.92;;;;;;;;;;5042554;28;20048;-83
2023/04/29 02:09:19;;;;;;;45.40;35.03;;;;;;;;;;5043234;28;20091;-83
2023/04/29 02:11:45;;;;;;;47.20;33.35;;;;;;;;;;5042896;28;20059;-82
2023/04/29 02:14:11;;;;;;;44.53;33.75;;;;;;;;;;5060937;28;20045;-82
2023/04/29 02:16:37;;;;;;;48.33;33.38;;;;;;;;;;5061027;28;20491;-81
2023/04/29 02:19:03;;;;;;;52.17;36.20;;;;;;;;;;5061186;28;20045;-82
2023/04/29 02:21:30;;;;;;;52.90;36.60;;;;;;;;;;5060485;28;20041;-82
2023/04/29 02:23:56;;;;;;;51.65;36.10;;;;;;;;;;5060767;28;20057;-81
2023/04/29 02:26:23;;;;;;;47.65;32.85;;;;;;;;;;5062278;28;20060;-82
2023/04/29 02:28:49;;;;;;;46.60;33.33;;;;;;;;;;5062576;28;20502;-82
2023/04/29 02:31:15;;;;;;;45.63;33.33;;;;;;;;;;5062938;28;20056;-81
2023/04/29 02:33:41;;;;;;;43.03;31.75;;;;;;;;;;5063109;28;20056;-82
2023/04/29 02:36:07;;;;;;;43.67;32.28;;;;;;;;;;5045321;28;20052;-81
2023/04/29 02:38:33;;;;;;;40.92;30.98;;;;;;;;;;5063695;28;20049;-81
2023/04/29 02:40:59;;;;;;;45.67;32.33;;;;;;;;;;5045401;28;20049;-82
2023/04/29 02:43:29;;;;;;;43.60;31.95;;;;;;;;;;5064243;28;20076;-81
2023/04/29 02:45:56;;;;;;;45.72;32.90;;;;;;;;;;5063737;28;20099;-82
2023/04/29 02:48:22;;;;;;;45.80;32.67;;;;;;;;;;5045281;28;20049;-81
2023/04/29 02:50:48;;;;;;;48.15;32.10;;;;;;;;;;5063470;28;20052;-82
2023/04/29 02:53:14;;;;;;;47.08;29.77;;;;;;;;;;5063872;28;20148;-81
2023/04/29 02:55:40;;;;;;;39.75;28.30;;;;;;;;;;5067678;28;20041;-82
2023/04/29 02:58:06;;;;;;;43.72;29.02;;;;;;;;;;5067871;28;20072;-82
2023/04/29 03:00:32;;;;;;;44.58;28.17;;;;;;;;;;5067894;28;20041;-82
2023/04/29 03:02:58;;;;;;;36.50;26.35;;;;;;;;;;5067045;28;20045;-82
2023/04/29 03:05:24;;;;;;;38.72;27.55;;;;;;;;;;5067589;28;20048;-82
2023/04/29 03:07:50;;;;;;;41.53;28.25;;;;;;;;;;5069569;28;20376;-82
2023/04/29 03:10:17;;;;;;;43.22;29.02;;;;;;;;;;5071004;28;20048;-81
2023/04/29 03:12:44;;;;;;;45.20;29.88;;;;;;;;;;5051907;28;20049;-81
2023/04/29 03:15:12;;;;;;;40.17;28.92;;;;;;;;;;5050798;28;20060;-80
2023/04/29 03:17:38;;;;;;;39.92;28.92;;;;;;;;;;5063354;28;20044;-81
2023/04/29 03:20:05;;;;;;;41.33;27.52;;;;;;;;;;5067667;28;20056;-82
2023/04/29 03:22:31;;;;;;;41.58;26.17;;;;;;;;;;5067432;28;20045;-82
2023/04/29 03:24:57;;;;;;;39.00;25.48;;;;;;;;;;5067459;28;20049;-81
2023/04/29 03:27:23;;;;;;;43.60;25.65;;;;;;;;;;5066696;28;20537;-81
2023/04/29 03:29:49;;;;;;;41.40;25.80;;;;;;;;;;5050097;28;20049;-81
2023/04/29 03:32:15;;;;;;;41.88;25.15;;;;;;;;;;5067463;28;20210;-82
2023/04/29 03:34:41;;;;;;;41.47;25.92;;;;;;;;;;5067880;28;20431;-82
2023/04/29 03:37:07;;;;;;;39.58;25.60;;;;;;;;;;5067004;28;20049;-82
2023/04/29 03:39:33;;;;;;;41.85;26.13;;;;;;;;;;5068632;28;20098;-82
2023/04/29 03:42:00;;;;;;;38.05;25.45;;;;;;;;;;5066968;28;20049;-82
2023/04/29 03:44:28;;;;;;;35.50;25.60;;;;;;;;;;5067115;28;20048;-82
2023/04/29 03:46:54;;;;;;;42.47;27.67;;;;;;;;;;5067516;28;20052;-82
2023/04/29 03:49:20;;;;;;;40.75;27.10;;;;;;;;;;5050417;28;20052;-82
2023/04/29 03:51:46;;;;;;;42.85;26.83;;;;;;;;;;5049538;28;20064;-81
2023/04/29 03:54:13;;;;;;;39.42;26.33;;;;;;;;;;5067552;28;20053;-82
2023/04/29 03:56:39;;;;;;;42.55;25.60;;;;;;;;;;5064960;28;20044;-82
2023/04/29 03:59:06;;;;;;;42.03;27.02;;;;;;;;;;5063605;28;20055;-82
2023/04/29 04:01:32;;;;;;;40.35;26.02;;;;;;;;;;5047227;28;20045;-81
2023/04/29 04:03:58;;;;;;;36.33;24.73;;;;;;;;;;5067109;28;20037;-82
2023/04/29 04:06:25;;;;;;;37.17;25.60;;;;;;;;;;5068040;28;20187;-81
2023/04/29 04:08:51;;;;;;;39.67;25.92;;;;;;;;;;5050430;28;20410;-82
2023/04/29 04:11:17;;;;;;;37.05;25.45;;;;;;;;;;5062485;28;20053;-83
2023/04/29 04:13:43;;;;;;;38.58;25.85;;;;;;;;;;5046755;28;20042;-82
2023/04/29 04:16:09;;;;;;;40.92;25.98;;;;;;;;;;5027721;28;20069;-81
2023/04/29 04:18:37;;;;;;;38.22;26.23;;;;;;;;;;5047071;28;20054;-82
2023/04/29 04:21:07;;;;;;;34.88;24.95;;;;;;;;;;5047703;28;20056;-82
2023/04/29 04:23:33;;;;;;;35.17;24.00;;;;;;;;;;5046618;28;20053;-82
2023/04/29 04:25:59;;;;;;;32.83;22.58;;;;;;;;;;5049696;28;20056;-82
2023/04/29 04:28:25;;;;;;;37.72;23.73;;;;;;;;;;5065815;28;20126;-81
2023/04/29 04:30:51;;;;;;;35.53;24.00;;;;;;;;;;5065053;28;20467;-82
2023/04/29 04:33:17;;;;;;;39.10;23.60;;;;;;;;;;5066155;28;20049;-81
2023/04/29 04:35:44;;;;;;;37.40;23.75;;;;;;;;;;5066293;28;20566;-82
2023/04/29 04:38:10;;;;;;;36.00;23.88;;;;;;;;;;5031118;28;20045;-83
2023/04/29 04:40:36;;;;;;;32.03;22.70;;;;;;;;;;5064455;28;20223;-83
2023/04/29 04:43:02;;;;;;;33.55;22.75;;;;;;;;;;5048263;28;20052;-82
2023/04/29 04:45:30;;;;;;;34.58;21.95;;;;;;;;;;5065983;28;20091;-82
2023/04/29 04:47:56;;;;;;;33.38;22.00;;;;;;;;;;5065723;28;20095;-82
2023/04/29 04:50:22;;;;;;;33.20;22.05;;;;;;;;;;5065591;28;20067;-82
2023/04/29 04:52:48;;;;;;;38.45;22.27;;;;;;;;;;5047284;28;20041;-81
2023/04/29 04:55:14;;;;;;;35.15;22.15;;;;;;;;;;5065191;28;20049;-82
2023/04/29 04:57:40;;;;;;;36.85;22.63;;;;;;;;;;5048097;28;20049;-82
2023/04/29 05:00:07;;;;;;;39.05;23.35;;;;;;;;;;5047856;28;20063;-82
2023/04/29 05:02:33;;;;;;;35.80;23.20;;;;;;;;;;5064803;28;20044;-82
2023/04/29 05:04:59;;;;;;;38.38;22.15;;;;;;;;;;5048116;28;20044;-82
2023/04/29 05:07:25;;;;;;;32.17;21.23;;;;;;;;;;5064301;28;20087;-81
2023/04/29 05:09:51;;;;;;;31.92;21.80;;;;;;;;;;5046503;28;20045;-82
2023/04/29 05:12:18;;;;;;;32.13;21.67;;;;;;;;;;5065366;28;20127;-82
2023/04/29 05:14:44;;;;;;;36.70;21.38;;;;;;;;;;5066101;28;20065;-82
2023/04/29 05:17:10;;;;;;;34.20;21.67;;;;;;;;;;5050111;28;20077;-82
2023/04/29 05:19:36;;;;;;;32.10;20.83;;;;;;;;;;5067629;28;20053;-82
2023/04/29 05:22:02;;;;;;;30.73;20.92;;;;;;;;;;5050589;28;20483;-82
2023/04/29 05:24:29;;;;;;;32.50;21.60;;;;;;;;;;5054351;28;20107;-82
2023/04/29 05:26:55;;;;;;;29.73;21.60;;;;;;;;;;5064662;28;20124;-82
2023/04/29 05:29:21;;;;;;;27.23;20.63;;;;;;;;;;5064111;28;20045;-82
2023/04/29 05:31:47;;;;;;;35.38;20.52;;;;;;;;;;5046288;28;20052;-81
2023/04/29 05:34:13;;;;;;;35.00;19.95;;;;;;;;;;5047457;28;20045;-81
2023/04/29 05:36:39;;;;;;;30.05;19.52;;;;;;;;;;5064557;28;20053;-82
2023/04/29 05:39:06;;;;;;;31.77;19.80;;;;;;;;;;5063100;28;20052;-82
2023/04/29 05:41:32;;;;;;;30.20;19.85;;;;;;;;;;5064550;28;20425;-81
2023/04/29 05:43:58;;;;;;;29.65;18.90;;;;;;;;;;5065271;28;20049;-82
2023/04/29 05:46:25;;;;;;;29.20;18.08;;;;;;;;;;5065168;28;20041;-81
2023/04/29 05:48:51;;;;;;;28.50;18.00;;;;;;;;;;5065571;28;20072;-82
2023/04/29 05:51:17;;;;;;;31.25;18.63;;;;;;;;;;5044289;28;20040;-81
2023/04/29 05:53:43;;;;;;;29.60;18.33;;;;;;;;;;5064914;28;20067;-82
2023/04/29 05:56:09;;;;;;;28.23;18.67;;;;;;;;;;5064388;28;20075;-81
2023/04/29 05:58:36;;;;;;;28.73;18.13;;;;;;;;;;5045931;28;20060;-81
2023/04/29 06:01:02;;;;;;;29.02;18.42;;;;;;;;;;5062700;28;20560;-82
2023/04/29 06:03:28;;;;;;;31.83;20.05;;;;;;;;;;5063688;28;20037;-82
2023/04/29 06:05:55;;;;;;;29.83;19.30;;;;;;;;;;5062799;28;20068;-81
2023/04/29 06:08:21;;;;;;;34.28;19.75;;;;;;;;;;5063053;28;20049;-82
2023/04/29 06:10:50;;;;;;;32.97;20.10;;;;;;;;;;5063843;28;20045;-82
2023/04/29 06:13:16;;;;;;;27.33;19.92;;;;;;;;;;5063909;28;20078;-81
2023/04/29 06:15:42;;;;;;;33.17;20.48;;;;;;;;;;5064259;28;20032;-81
2023/04/29 06:18:08;;;;;;;28.58;19.23;;;;;;;;;;5063308;28;20060;-81
2023/04/29 06:20:34;;;;;;;30.33;19.73;;;;;;;;;;5062567;28;20063;-81
2023/04/29 06:23:00;;;;;;;28.23;20.48;;;;;;;;;;5045418;28;20078;-82
2023/04/29 06:25:26;;;;;;;32.53;21.10;;;;;;;;;;5062112;28;20055;-81
2023/04/29 06:27:53;;;;;;;29.77;19.65;;;;;;;;;;5061368;28;20049;-82
2023/04/29 06:30:19;;;;;;;32.80;20.45;;;;;;;;;;5061868;28;20047;-82
2023/04/29 06:32:45;;;;;;;29.35;20.75;;;;;;;;;;5062731;28;20100;-82
2023/04/29 06:35:11;;;;;;;29.48;20.10;;;;;;;;;;5044793;28;20099;-81
2023/04/29 06:37:37;;;;;;;28.38;19.73;;;;;;;;;;5061486;28;20048;-81
2023/04/29 06:40:03;;;;;;;29.52;20.15;;;;;;;;;;5061335;28;20063;-82
2023/04/29 06:42:30;;;;;;;28.55;19.80;;;;;;;;;;5063030;28;20041;-82
2023/04/29 06:44:56;;;;;;;31.55;20.00;;;;;;;;;;5062793;28;20052;-82
2023/04/29 06:47:22;;;;;;;32.72;20.00;;;;;;;;;;5063683;28;20056;-82
2023/04/29 06:49:48;;;;;;;28.75;19.88;;;;;;;;;;5063198;28;20558;-83
2023/04/29 06:52:14;;;;;;;27.50;18.67;;;;;;;;;;5064579;28;20041;-82
2023/04/29 06:54:40;;;;;;;26.48;17.92;;;;;;;;;;5064846;28;20037;-81
2023/04/29 06:57:06;;;;;;;25.10;18.13;;;;;;;;;;5064217;28;20512;-82
2023/04/29 06:59:32;;;;;;;25.40;17.73;;;;;;;;;;5063017;28;20063;-81
2023/04/29 07:01:58;;;;;;;24.70;17.67;;;;;;;;;;5062941;28;20472;-82
2023/04/29 07:04:25;;;;;;;23.67;16.90;;;;;;;;;;5062580;28;20051;-81
2023/04/29 07:06:52;;;;;;;22.58;16.27;;;;;;;;;;5063744;28;20450;-82
2023/04/29 07:09:18;;;;;;;23.25;16.35;;;;;;;;;;5063342;28;20049;-83
2023/04/29 07:11:45;;;;;;;21.95;15.10;;;;;;;;;;5063223;28;20040;-81
2023/04/29 07:14:11;;;;;;;25.98;15.82;;;;;;;;;;5062132;28;20140;-81
2023/04/29 07:16:37;;;;;;;21.50;14.93;;;;;;;;;;5043649;28;20118;-81
2023/04/29 07:19:03;;;;;;;20.80;14.13;;;;;;;;;;5062037;28;20430;-82
2023/04/29 07:21:30;;;;;;;19.27;14.15;;;;;;;;;;5045698;28;20041;-82
2023/04/29 07:23:58;;;;;;;21.05;14.07;;;;;;;;;;5064642;28;20076;-82
2023/04/29 07:26:24;;;;;;;22.83;14.52;;;;;;;;;;5064965;28;20094;-81
2023/04/29 07:28:50;;;;;;;17.83;13.35;;;;;;;;;;5065210;28;20040;-81
2023/04/29 07:31:16;;;;;;;19.90;12.60;;;;;;;;;;5063336;28;20136;-81
2023/04/29 07:33:45;;;;;;;19.08;13.13;;;;;;;;;;5045079;28;20053;-81
2023/04/29 07:36:11;;;;;;;20.63;12.70;;;;;;;;;;5055460;28;20057;-80
2023/04/29 07:38:37;;;;;;;21.48;12.48;;;;;;;;;;5042710;28;20042;-83
2023/04/29 07:41:03;;;;;;;19.13;12.82;;;;;;;;;;5045342;28;20041;-82
2023/04/29 07:43:29;;;;;;;16.58;11.75;;;;;;;;;;5028519;28;20056;-83
2023/04/29 07:45:56;;;;;;;17.40;11.82;;;;;;;;;;5047225;28;20077;-82
2023/04/29 07:48:22;;;;;;;17.27;12.45;;;;;;;;;;5046294;28;20132;-81
2023/04/29 07:50:48;;;;;;;16.75;12.27;;;;;;;;;;5049348;28;20061;-82
2023/04/29 07:53:14;;;;;;;15.90;11.93;;;;;;;;;;5065191;28;20100;-81
2023/04/29 07:55:41;;;;;;;15.93;11.45;;;;;;;;;;5064785;28;20045;-82
2023/04/29 07:58:07;;;;;;;14.88;9.40;;;;;;;;;;5064724;28;20506;-81
2023/04/29 08:00:33;;;;;;;15.57;10.13;;;;;;;;;;5065759;28;20041;-81
2023/04/29 08:02:59;;;;;;;16.48;9.80;;;;;;;;;;5047668;28;20044;-81
2023/04/29 08:05:25;;;;;;;13.48;9.60;;;;;;;;;;5064584;28;20086;-81
2023/04/29 08:07:52;;;;;;;14.20;10.10;;;;;;;;;;5064968;28;20076;-82
2023/04/29 08:10:18;;;;;;;13.63;9.30;;;;;;;;;;5046649;28;20045;-82
2023/04/29 08:12:48;;;;;;;14.68;9.13;;;;;;;;;;5065404;28;20082;-82
2023/04/29 08:15:14;;;;;;;14.50;9.25;;;;;;;;;;5066415;28;20372;-82
2023/04/29 08:17:40;;;;;;;12.70;9.13;;;;;;;;;;5065963;28;20052;-83
2023/04/29 08:20:07;;;;;;;15.55;9.63;;;;;;;;;;5048027;28;20045;-82
2023/04/29 08:22:33;;;;;;;13.27;9.60;;;;;;;;;;5065723;28;20159;-83
2023/04/29 08:25:00;;;;;;;14.27;10.35;;;;;;;;;;5066126;28;20044;-82
2023/04/29 08:27:26;;;;;;;15.15;9.90;;;;;;;;;;5066470;28;20062;-82
2023/04/29 08:29:52;;;;;;;10.65;8.45;;;;;;;;;;5066259;28;20056;-82
2023/04/29 08:32:18;;;;;;;13.68;9.43;;;;;;;;;;5047810;28;20051;-82
2023/04/29 08:34:45;;;;;;;12.73;9.05;;;;;;;;;;5064135;28;20049;-83
2023/04/29 08:37:11;;;;;;;14.63;8.93;;;;;;;;;;5064133;28;20095;-81
2023/04/29 08:39:37;;;;;;;14.27;9.70;;;;;;;;;;5062830;28;20406;-82
2023/04/29 08:42:09;;;;;;;15.93;9.27;;;;;;;;;;5063383;28;20037;-81
2023/04/29 08:44:36;;;;;;;13.00;9.05;;;;;;;;;;5063914;28;20098;-82
2023/04/29 08:47:02;;;;;;;13.02;9.07;;;;;;;;;;5045784;28;20407;-82
2023/04/29 08:49:31;;;;;;;15.13;8.57;;;;;;;;;;5044901;28;20044;-82
2023/04/29 08:51:57;;;;;;;13.93;8.35;;;;;;;;;;5043990;28;20041;-81
2023/04/29 08:54:23;;;;;;;14.57;8.88;;;;;;;;;;5062317;28;20049;-82
2023/04/29 08:56:51;;;;;;;11.48;8.40;;;;;;;;;;5044076;28;20070;-82
2023/04/29 08:59:18;;;;;;;13.52;8.50;;;;;;;;;;5061435;28;20044;-81
2023/04/29 09:01:49;;;;;;;13.18;8.23;;;;;;;;;;5061753;28;20116;-83
2023/04/29 09:04:21;;;;;;;16.25;8.90;;;;;;;;;;5060164;28;20068;-82
2023/04/29 09:06:48;;;;;;;14.82;8.25;;;;;;;;;;5061814;28;20041;-82
2023/04/29 09:09:14;;;;;;;14.00;7.60;;;;;;;;;;5060976;28;20044;-81
2023/04/29 09:11:40;;;;;;;10.75;8.05;;;;;;;;;;5060182;28;20056;-82
2023/04/29 09:14:08;;;;;;;13.73;8.20;;;;;;;;;;5060521;28;20081;-82
2023/04/29 09:16:37;;;;;;;13.73;8.02;;;;;;;;;;5061621;28;20106;-81
2023/04/29 09:19:03;;;;;;;16.27;8.85;;;;;;;;;;5061906;28;20049;-82
2023/04/29 09:21:32;;;;;;;9.70;7.68;;;;;;;;;;5062689;28;20048;-81
2023/04/29 09:24:01;;;;;;;11.27;8.25;;;;;;;;;;5062760;28;20060;-83
2023/04/29 09:26:33;;;;;;;13.32;7.90;;;;;;;;;;5061564;28;20043;-82
2023/04/29 09:29:14;;;;;;;14.75;8.15;;;;;;;;;;5067775;28;20064;-82
2023/04/29 09:31:41;;;;;;;13.52;8.13;;;;;;;;;;5065799;28;20083;-81
2023/04/29 09:34:07;;;;;;;11.05;7.78;;;;;;;;;;5046427;28;20128;-82
2023/04/29 09:36:39;;;;;;;14.45;9.05;;;;;;;;;;5065351;28;20079;-82
2023/04/29 09:39:12;;;;;;;13.80;8.73;;;;;;;;;;5062931;28;20045;-82
2023/04/29 09:41:40;;;;;;;11.65;8.00;;;;;;;;;;5063643;28;20044;-82
2023/04/29 09:44:07;;;;;;;12.63;8.57;;;;;;;;;;5064295;28;20041;-82
2023/04/29 09:46:35;;;;;;;13.45;8.32;;;;;;;;;;5047060;28;20063;-82
2023/04/29 09:49:03;;;;;;;13.35;8.38;;;;;;;;;;5064427;28;20041;-81
2023/04/29 09:51:31;;;;;;;13.07;8.40;;;;;;;;;;5064312;28;20048;-82
2023/04/29 09:53:59;;;;;;;12.73;8.43;;;;;;;;;;5063714;28;20060;-82
2023/04/29 09:56:29;;;;;;;15.75;8.65;;;;;;;;;;5063242;28;20045;-81
2023/04/29 09:58:56;;;;;;;12.30;7.95;;;;;;;;;;5045460;28;20063;-81
2023/04/29 10:01:22;;;;;;;14.43;9.00;;;;;;;;;;5063626;28;20041;-82
2023/04/29 10:03:49;;;;;;;14.63;8.75;;;;;;;;;;5045555;28;20105;-81
2023/04/29 10:06:18;;;;;;;14.75;8.30;;;;;;;;;;5064270;28;20041;-81
2023/04/29 10:08:44;;;;;;;13.45;8.63;;;;;;;;;;5063643;28;20107;-82
2023/04/29 10:11:11;;;;;;;14.13;8.43;;;;;;;;;;5063919;28;20041;-82
2023/04/29 10:13:37;;;;;;;16.25;8.68;;;;;;;;;;5047572;28;20078;-82
2023/04/29 10:16:07;;;;;;;11.02;8.60;;;;;;;;;;5064392;28;20049;-83
2023/04/29 10:18:36;;;;;;;15.50;8.50;;;;;;;;;;5065195;28;20049;-82
2023/04/29 10:21:03;;;;;;;12.20;8.02;;;;;;;;;;5065389;28;20041;-83
2023/04/29 10:23:30;;;;;;;12.25;8.32;;;;;;;;;;5062775;28;20049;-82
2023/04/29 10:25:57;;;;;;;11.13;8.27;;;;;;;;;;5047844;28;20109;-81
2023/04/29 10:28:23;;;;;;;13.30;8.57;;;;;;;;;;5044273;28;20050;-82
2023/04/29 10:30:54;;;;;;;12.98;8.48;;;;;;;;;;5045645;28;20093;-81
2023/04/29 10:33:22;;;;;;;13.23;7.65;;;;;;;;;;5049814;28;20048;-83
2023/04/29 10:35:48;;;;;;;14.57;8.77;;;;;;;;;;5064481;28;20041;-81
2023/04/29 10:38:24;;;;;;;13.27;8.05;;;;;;;;;;5064223;28;20036;-82
2023/04/29 10:40:50;;;;;;;13.93;7.90;;;;;;;;;;5065340;28;20048;-81
2023/04/29 10:43:22;;;;;;;11.23;7.75;;;;;;;;;;5064877;28;20511;-82
2023/04/29 10:45:48;;;;;;;11.90;8.35;;;;;;;;;;5062633;28;20045;-82
2023/04/29 10:48:14;;;;;;;13.07;8.52;;;;;;;;;;5046655;28;20071;-82
2023/04/29 10:50:47;;;;;;;14.00;7.82;;;;;;;;;;5064511;28;20148;-81
2023/04/29 10:53:13;;;;;;;11.70;7.15;;;;;;;;;;5064013;28;20052;-82
2023/04/29 10:55:39;;;;;;;13.65;7.15;;;;;;;;;;5065551;28;20418;-82
2023/04/29 10:58:06;;;;;;;11.27;6.57;;;;;;;;;;5065594;28;20048;-81
2023/04/29 11:00:33;;;;;;;12.52;6.68;;;;;;;;;;5062770;28;20072;-82
2023/04/29 11:03:04;;;;;;;10.95;6.22;;;;;;;;;;5064319;28;20076;-81
2023/04/29 11:05:30;;;;;;;;;;;;;;;;;;5064214;28;20616;-83
2023/04/29 11:08:11;;;;;;;10.13;6.78;;;;;;;;;;5065163;28;20339;-81
2023/04/29 11:10:37;;;;;;;14.57;6.72;;;;;;;;;;5070088;28;20049;-82
2023/04/29 11:13:22;;;;;;;10.38;6.18;;;;;;;;;;5053058;28;20049;-82
2023/04/29 11:15:50;;;;;;;11.73;6.68;;;;;;;;;;5071903;28;20037;-81
2023/04/29 11:18:16;;;;;;;8.27;5.82;;;;;;;;;;5075047;28;20083;-82
2023/04/29 11:21:01;;;;;;;9.32;6.35;;;;;;;;;;5074157;28;20053;-81
2023/04/29 11:23:27;;;;;;;10.35;6.20;;;;;;;;;;5056839;28;20053;-83
2023/04/29 11:25:54;;;;;;;9.50;6.50;;;;;;;;;;5056349;28;20057;-81
2023/04/29 11:28:21;;;;;;;8.77;5.85;;;;;;;;;;5069336;28;20053;-82
2023/04/29 11:30:48;;;;;;;10.55;6.00;;;;;;;;;;5068603;28;20047;-81
2023/04/29 11:33:14;;;;;;;8.25;5.30;;;;;;;;;;5066067;28;20128;-81
2023/04/29 11:35:41;;;;;;;7.65;4.85;;;;;;;;;;5067364;28;20101;-81
2023/04/29 11:38:07;;;;;;;8.85;5.40;;;;;;;;;;5068102;28;20113;-82
2023/04/29 11:40:33;;;;;;;11.73;5.85;;;;;;;;;;5069925;28;20041;-82
2023/04/29 11:42:59;;;;;;;10.88;6.35;;;;;;;;;;5070614;28;20045;-81
2023/04/29 11:45:26;;;;;;;10.77;6.38;;;;;;;;;;5069007;28;20049;-82
2023/04/29 11:47:52;;;;;;;10.02;5.43;;;;;;;;;;5063197;28;20430;-82
2023/04/29 11:50:19;;;;;;;12.15;6.15;;;;;;;;;;5057515;28;20453;-81
2023/04/29 11:52:48;;;;;;;8.70;5.78;;;;;;;;;;5066256;28;20043;-82
2023/04/29 11:55:14;;;;;;;10.07;5.50;;;;;;;;;;5066664;28;20051;-81
2023/04/29 11:57:41;;;;;;;11.02;6.05;;;;;;;;;;5066431;28;20041;-82
2023/04/29 12:00:13;;;;;;;8.75;5.13;;;;;;;;;;5065856;28;20052;-81
2023/04/29 12:02:43;;;;;;;8.70;5.90;;;;;;;;;;5065376;28;20091;-81
2023/04/29 12:05:09;;;;;;;10.38;5.72;;;;;;;;;;5068781;28;20041;-81
2023/04/29 12:07:36;;;;;;;10.73;6.15;;;;;;;;;;5068862;28;20041;-82
2023/04/29 12:10:02;;;;;;;11.27;5.50;;;;;;;;;;5032026;28;20052;-82
2023/04/29 12:12:30;;;;;;;10.35;4.90;;;;;;;;;;5065028;28;20049;-81
2023/04/29 12:14:56;;;;;;;12.10;5.63;;;;;;;;;;5063749;28;20068;-81
2023/04/29 12:17:23;;;;;;;9.98;5.15;;;;;;;;;;5065626;28;20402;-82
2023/04/29 12:19:50;;;;;;;9.50;4.93;;;;;;;;;;5064694;28;20480;-82
2023/04/29 12:22:16;;;;;;;9.48;5.10;;;;;;;;;;5047208;28;20088;-81
2023/04/29 12:24:42;;;;;;;9.32;5.70;;;;;;;;;;5064230;28;20041;-82
2023/04/29 12:27:09;;;;;;;10.80;5.00;;;;;;;;;;5062235;28;20115;-82
2023/04/29 12:29:42;;;;;;;9.30;5.10;;;;;;;;;;5064988;28;20126;-82
2023/04/29 12:32:12;;;;;;;10.50;5.53;;;;;;;;;;5065430;28;20053;-82
2023/04/29 12:34:39;;;;;;;9.83;5.60;;;;;;;;;;5065718;28;20041;-82
2023/04/29 12:37:05;;;;;;;8.98;5.10;;;;;;;;;;5067823;28;20049;-81
2023/04/29 12:39:32;;;;;;;10.25;4.80;;;;;;;;;;5065115;28;20040;-81
2023/04/29 12:41:58;;;;;;;9.80;4.47;;;;;;;;;;5067380;28;20056;-82
2023/04/29 12:44:25;;;;;;;9.65;4.28;;;;;;;;;;5076315;28;20041;-80
2023/04/29 12:46:54;;;;;;;9.35;3.60;;;;;;;;;;5059110;28;20049;-81
2023/04/29 12:49:23;;;;;;;7.40;3.67;;;;;;;;;;5074003;28;20076;-81
2023/04/29 12:51:49;;;;;;;8.95;3.60;;;;;;;;;;5075166;28;20429;-81
2023/04/29 12:54:15;;;;;;;8.50;3.72;;;;;;;;;;5070869;28;20049;-82
2023/04/29 12:56:42;;;;;;;7.85;3.10;;;;;;;;;;5066620;28;20052;-82
2023/04/29 12:59:09;;;;;;;7.32;3.22;;;;;;;;;;5067676;28;20045;-82
2023/04/29 13:01:38;;;;;;;6.85;2.92;;;;;;;;;;5067148;28;20056;-82
2023/04/29 13:04:07;;;;;;;7.47;2.53;;;;;;;;;;5067265;28;20041;-81
2023/04/29 13:06:33;;;;;;;7.63;2.60;;;;;;;;;;5066990;28;20045;-81
2023/04/29 13:08:59;;;;;;;6.78;2.75;;;;;;;;;;5067275;28;20041;-81
2023/04/29 13:11:25;;;;;;;9.40;3.85;;;;;;;;;;5065787;28;20041;-81
2023/04/29 13:13:52;;;;;;;7.32;3.47;;;;;;;;;;5062608;28;20045;-82
2023/04/29 13:16:18;;;;;;;6.50;3.38;;;;;;;;;;5064101;28;20045;-82
2023/04/29 13:18:44;;;;;;;8.45;3.25;;;;;;;;;;5045501;28;20053;-81
2023/04/29 13:21:10;;;;;;;7.03;3.03;;;;;;;;;;5045471;28;20164;-81
2023/04/29 13:23:36;;;;;;;5.18;2.90;;;;;;;;;;5066061;28;20060;-81
2023/04/29 13:26:02;;;;;;;11.25;3.17;;;;;;;;;;5065623;28;20049;-81
2023/04/29 13:28:28;;;;;;;7.38;3.45;;;;;;;;;;5066055;28;20080;-81
2023/04/29 13:30:54;;;;;;;9.32;3.28;;;;;;;;;;5066213;28;20120;-82
2023/04/29 13:33:21;;;;;;;6.07;3.22;;;;;;;;;;5048215;28;20053;-82
2023/04/29 13:35:48;;;;;;;7.13;3.20;;;;;;;;;;5063459;28;20048;-82
2023/04/29 13:38:14;;;;;;;7.07;3.47;;;;;;;;;;5065993;28;20045;-82
2023/04/29 13:40:40;;;;;;;8.02;3.25;;;;;;;;;;5065061;28;20074;-81
2023/04/29 13:43:06;;;;;;;7.97;3.20;;;;;;;;;;5065814;28;20053;-81
2023/04/29 13:45:36;;;;;;;7.88;3.13;;;;;;;;;;5065429;28;20049;-80
2023/04/29 13:48:02;;;;;;;6.75;3.38;;;;;;;;;;5066852;28;20125;-81
2023/04/29 13:50:28;;;;;;;8.27;3.33;;;;;;;;;;5067977;28;20040;-82
2023/04/29 13:52:54;;;;;;;6.65;2.90;;;;;;;;;;5068283;28;20041;-81
2023/04/29 13:55:20;;;;;;;7.03;3.15;;;;;;;;;;5049040;28;20045;-81
2023/04/29 13:57:46;;;;;;;9.20;3.70;;;;;;;;;;5065503;28;20066;-81
2023/04/29 14:00:13;;;;;;;7.85;2.92;;;;;;;;;;5066420;28;20044;-81
2023/04/29 14:02:39;;;;;;;7.22;3.03;;;;;;;;;;5044847;28;20033;-81
2023/04/29 14:05:05;;;;;;;6.95;3.53;;;;;;;;;;5038522;28;20112;-82
2023/04/29 14:07:32;;;;;;;8.02;2.90;;;;;;;;;;5037726;28;20499;-83
2023/04/29 14:09:58;;;;;;;5.90;2.90;;;;;;;;;;5064256;28;20096;-81
2023/04/29 14:12:24;;;;;;;6.43;2.63;;;;;;;;;;5045956;28;20056;-82
2023/04/29 14:14:50;;;;;;;6.97;2.22;;;;;;;;;;5053451;28;20116;-82
2023/04/29 14:17:16;;;;;;;5.68;2.20;;;;;;;;;;5041562;28;20048;-81
2023/04/29 14:19:42;;;;;;;7.40;2.55;;;;;;;;;;5062284;28;20103;-82
2023/04/29 14:22:08;;;;;;;6.85;2.13;;;;;;;;;;5046940;28;20053;-82
2023/04/29 14:24:34;;;;;;;4.22;1.83;;;;;;;;;;5059900;28;20049;-82